Thunder radar more information blitzortung!


Radar de pluja more information rain snow radar


Visita la nostra xarxa de llocs de meteo:

Template documentation
and downloads

And another site



No particular awareness of the weather is required.    There are no Weather-warnings

Pagina Historial Weather Underground text

Diari Resum January 7, 2018 Unitats:  Imperial    Mètric   Tant
« Previous Dia
SegĂźent Dia »
Diari Setmana Mensual Anual Personalitzada
  Maxima: Minima: Media:
Temperatura: TemperatureC °F 2.6 °F 7.7 °F
Punt de rosada: DewpointC °F 0.2 °F 5.1 °F
Humitat: Humidity % 79 % 83 %
Wind Speed: WindSpeedKMH mph 0.0 mph 4 mph
RĂ fegues de vent: WindSpeedGustKMH mph - -
Vent:- - SE
Pression baro: PressurehPa in 997.9 in -
Precipitacions: 7.4 in    
Historical Graphs
 
 
Dades de taula per January 7, 2018
Temps Temperatura Punt de rosada Pression baro Vent Wind Speed RĂ fegues de vent Humitat Rainfall Rate (Hourly)
TemperatureC °F DewpointC °F PressurehPa in Calm     Humidity % HourlyPrecipMM in
00:00 12.7 °F 10.1 °F 998.9 in ENE 5.6 mph 5.6 mph 84 % 4.1 in
00:05 12.6 °F 10.2 °F 998.9 in NE 3.2 mph 6.4 mph 85 % 0.0 in
00:08 12.6 °F 9.9 °F 997.9 in ESE 5.3 mph 5.3 mph 84 % 4.1 in
00:25 11.2 °F 7.9 °F 999.9 in NE 3.2 mph 4.8 mph 80 % 0.0 in
00:45 11.2 °F 7.7 °F 999.9 in East 1.6 mph 3.2 mph 79 % 0.0 in
00:55 11.1 °F 7.6 °F 999.9 in NE 4.8 mph 4.8 mph 79 % 0.0 in
01:05 11.0 °F 7.5 °F 999.9 in NNE 1.6 mph 4.8 mph 79 % 0.0 in
01:25 11.0 °F 7.7 °F 999.9 in Calm   1.6 mph 80 % 0.0 in
01:45 11.1 °F 7.8 °F 999.9 in NNE 1.6 mph 1.6 mph 80 % 0.0 in
01:55 11.0 °F 7.5 °F 999.9 in North 1.6 mph 3.2 mph 79 % 0.0 in
02:35 11.0 °F 7.7 °F 1000.9 in NE 3.2 mph 6.4 mph 80 % 0.0 in
02:45 11.1 °F 7.8 °F 1000.9 in NE 3.2 mph 4.8 mph 80 % 0.0 in
03:15 10.0 °F 6.7 °F 1000.9 in SSE 4.8 mph 8.0 mph 80 % 0.0 in
03:25 9.5 °F 6.1 °F 1001.9 in SSW 3.2 mph 8.0 mph 79 % 1.3 in
03:45 9.2 °F 5.9 °F 1001.9 in SSW 4.8 mph 20.9 mph 80 % 0.0 in
10:01 9.1 °F 5.8 °F 1001.9 in ESE 5.6 mph 5.6 mph 80 % 1.3 in
10:07 9.0 °F 5.7 °F 1002.9 in NE 7.4 mph 7.4 mph 80 % 1.3 in
10:12 9.0 °F 5.7 °F 1002.9 in NNE 5.6 mph 5.6 mph 80 % 1.3 in
10:17 9.0 °F 5.9 °F 1002.9 in NNE 4.7 mph 4.7 mph 81 % 1.3 in
10:20 9.0 °F 5.9 °F 1002.9 in NE 5.6 mph 5.6 mph 81 % 1.3 in
10:24 9.0 °F 5.9 °F 1003.9 in ENE 5.6 mph 5.6 mph 81 % 2.3 in
10:29 9.0 °F 6.1 °F 1003.9 in NE 5.6 mph 5.6 mph 82 % 2.3 in
10:34 8.9 °F 6.0 °F 1003.9 in NE 5.6 mph 5.6 mph 82 % 2.3 in
10:37 8.9 °F 6.0 °F 1002.9 in NNE 5.6 mph 5.6 mph 82 % 2.3 in
10:42 8.9 °F 6.2 °F 1002.9 in NNE 3.7 mph 3.7 mph 83 % 2.3 in
10:47 8.9 °F 6.2 °F 1002.9 in NNE 5.6 mph 5.6 mph 83 % 1.0 in
10:48 9.0 °F 6.3 °F 1002.9 in NNE 5.6 mph 5.6 mph 83 % 1.0 in
10:53 9.0 °F 6.3 °F 1003.9 in NNE 3.7 mph 3.7 mph 83 % 1.0 in
10:54 9.0 °F 6.3 °F 1003.9 in NNE 4.2 mph 4.2 mph 83 % 1.0 in
10:59 9.0 °F 6.4 °F 1003.9 in NNE 5.6 mph 5.6 mph 84 % 1.0 in
11:01 9.0 °F 6.4 °F 1003.9 in NNE 4.7 mph 4.7 mph 84 % 1.0 in
11:02 9.0 °F 6.4 °F 1003.9 in NNE 3.7 mph 3.7 mph 84 % 1.0 in
11:08 9.0 °F 6.4 °F 1003.9 in North 3.7 mph 3.7 mph 84 % 1.0 in
11:10 9.0 °F 6.4 °F 1003.9 in NNE 3.7 mph 3.7 mph 84 % 1.0 in
11:15 9.0 °F 6.4 °F 1003.9 in NNE 5.8 mph 5.8 mph 84 % 1.0 in
11:16 9.0 °F 6.4 °F 1003.9 in ENE 6.9 mph 6.9 mph 84 % 1.0 in
11:18 9.0 °F 6.4 °F 1003.9 in NNE 7.4 mph 7.4 mph 84 % 1.0 in
11:23 9.0 °F 6.4 °F 1003.9 in NNE 9.3 mph 9.3 mph 84 % 0.0 in
11:28 9.0 °F 6.4 °F 1003.9 in NNE 7.4 mph 7.6 mph 84 % 0.0 in
11:29 9.0 °F 6.4 °F 1003.9 in ENE 7.4 mph 7.4 mph 84 % 0.0 in
11:31 9.0 °F 6.4 °F 1003.9 in NNE 5.8 mph 5.8 mph 84 % 1.0 in
11:34 8.9 °F 6.5 °F 1003.9 in NNE 7.4 mph 7.4 mph 85 % 1.0 in
11:39 8.9 °F 6.3 °F 1003.9 in NNE 5.6 mph 5.6 mph 84 % 1.0 in
11:43 8.8 °F 6.4 °F 1003.9 in ENE 3.7 mph 3.7 mph 85 % 1.0 in
11:48 8.8 °F 6.4 °F 1003.9 in ENE 3.9 mph 3.9 mph 85 % 1.0 in
11:50 8.8 °F 6.4 °F 1005.0 in NNE 5.6 mph 5.6 mph 85 % 1.0 in
11:54 8.7 °F 6.3 °F 1005.0 in NNE 5.6 mph 5.6 mph 85 % 1.0 in
11:59 8.7 °F 6.3 °F 1005.0 in NNE 5.6 mph 5.6 mph 85 % 1.0 in
12:00 8.7 °F 6.3 °F 1005.0 in NNE 3.7 mph 3.7 mph 85 % 1.0 in
12:05 8.7 °F 6.3 °F 1005.0 in NNE 5.6 mph 5.6 mph 85 % 1.0 in
12:10 8.7 °F 6.3 °F 1005.0 in ENE 5.6 mph 5.6 mph 85 % 2.0 in
12:12 8.7 °F 6.3 °F 1005.0 in ENE 7.4 mph 7.4 mph 85 % 2.0 in
12:15 8.6 °F 6.2 °F 1005.0 in ENE 7.4 mph 7.4 mph 85 % 2.0 in
12:19 8.6 °F 6.2 °F 1005.0 in NE 7.4 mph 7.4 mph 85 % 2.0 in
12:24 8.7 °F 6.3 °F 1005.0 in East 7.4 mph 7.4 mph 85 % 2.0 in
12:25 8.7 °F 6.3 °F 1005.0 in NE 3.7 mph 3.7 mph 85 % 2.0 in
12:30 8.7 °F 6.3 °F 1005.0 in ENE 4.2 mph 4.2 mph 85 % 2.0 in
12:32 8.7 °F 6.3 °F 1005.0 in NNE 6.1 mph 6.1 mph 85 % 1.0 in
12:37 8.7 °F 6.3 °F 1003.9 in ENE 9.3 mph 9.3 mph 85 % 1.0 in
12:38 8.7 °F 6.3 °F 1003.9 in NNE 11.1 mph 11.1 mph 85 % 1.0 in
12:43 8.7 °F 6.3 °F 1003.9 in NNE 3.7 mph 3.7 mph 85 % 1.0 in
12:44 8.7 °F 6.3 °F 1003.9 in WNW 3.7 mph   85 % 1.0 in
12:49 8.8 °F 6.6 °F 1003.9 in Calm     86 % 2.0 in
12:50 8.8 °F 6.6 °F 1003.9 in Calm     86 % 2.0 in
12:55 8.8 °F 6.6 °F 1005.0 in NE 1.9 mph 1.9 mph 86 % 2.0 in
12:57 8.8 °F 6.6 °F 1005.0 in NE 1.9 mph   86 % 2.0 in
13:00 8.8 °F 6.6 °F 1005.0 in NNW 3.7 mph 3.7 mph 86 % 2.0 in
13:03 8.8 °F 6.6 °F 1005.0 in NNE 5.6 mph 5.6 mph 86 % 2.0 in
13:08 8.8 °F 6.6 °F 1003.9 in ENE 6.4 mph 6.4 mph 86 % 2.0 in
13:11 8.8 °F 6.6 °F 1003.9 in NNE 9.3 mph 9.3 mph 86 % 1.0 in
13:16 8.8 °F 6.6 °F 1003.9 in ENE 8.7 mph 8.7 mph 86 % 1.0 in
13:22 8.8 °F 6.6 °F 1005.0 in NE 9.3 mph 9.3 mph 86 % 1.0 in
13:23 8.8 °F 6.6 °F 1005.0 in NNE 7.4 mph 7.4 mph 86 % 1.0 in
13:28 8.8 °F 6.6 °F 1005.0 in NE 7.4 mph 7.4 mph 86 % 1.0 in
13:33 8.8 °F 6.8 °F 1005.0 in NNE 5.8 mph 5.8 mph 87 % 1.0 in
13:34 8.8 °F 6.8 °F 1005.0 in NNE 7.4 mph 7.4 mph 87 % 1.0 in
13:39 8.8 °F 6.8 °F 1003.9 in NNE 7.4 mph 7.4 mph 87 % 1.0 in
13:40 8.8 °F 6.8 °F 1003.9 in NE 7.4 mph 7.4 mph 87 % 1.0 in
13:41 8.8 °F 6.8 °F 1003.9 in ENE 5.6 mph 5.6 mph 87 % 1.0 in
13:46 8.8 °F 6.8 °F 1003.9 in NNE 5.6 mph 5.6 mph 87 % 0.0 in
13:51 8.8 °F 6.8 °F 1003.9 in NNE 7.4 mph 7.4 mph 87 % 0.0 in
13:55 8.8 °F 6.8 °F 1003.9 in ENE 7.4 mph 7.4 mph 87 % 0.0 in
13:57 8.8 °F 6.8 °F 1003.9 in NNE 7.4 mph 7.4 mph 87 % 0.0 in
14:02 8.7 °F 6.5 °F 1003.9 in ENE 9.3 mph 9.3 mph 86 % 0.0 in
14:06 8.7 °F 6.5 °F 1003.9 in NNE 7.4 mph 7.4 mph 86 % 0.0 in
14:11 8.6 °F 6.4 °F 1003.9 in ENE 5.8 mph 5.8 mph 86 % 0.0 in
14:13 8.6 °F 6.4 °F 1003.9 in NNE 5.6 mph 5.6 mph 86 % 0.0 in
14:15 8.6 °F 6.4 °F 1003.9 in NNE 7.4 mph 7.4 mph 86 % 0.0 in
14:19 8.6 °F 6.4 °F 1003.9 in NNE 9.3 mph 9.3 mph 86 % 0.0 in
14:24 8.6 °F 6.2 °F 1002.9 in ENE 9.3 mph 9.3 mph 85 % 0.0 in
14:27 8.6 °F 6.2 °F 1002.9 in ENE 13.0 mph 13.0 mph 85 % 0.0 in
14:32 8.5 °F 6.1 °F 1002.9 in East 5.8 mph 5.8 mph 85 % 0.0 in
14:34 8.5 °F 6.1 °F 1002.9 in ENE 5.6 mph 5.6 mph 85 % 0.0 in
14:39 8.6 °F 6.2 °F 1003.9 in ENE 3.9 mph 3.9 mph 85 % 0.0 in
14:40 8.6 °F 6.2 °F 1003.9 in ENE 3.7 mph 3.7 mph 85 % 0.0 in
14:45 8.6 °F 6.2 °F 1003.9 in NNE 5.6 mph 5.6 mph 85 % 0.0 in
14:50 8.6 °F 6.2 °F 1003.9 in WNW 3.7 mph   85 % 0.0 in
14:55 8.6 °F 6.2 °F 1003.9 in Calm     85 % 0.0 in
14:56 8.6 °F 6.2 °F 1003.9 in Calm     85 % 0.0 in
14:57 8.6 °F 6.2 °F 1003.9 in Calm     85 % 0.0 in
15:02 8.7 °F 6.3 °F 1003.9 in SW 3.5 mph 3.5 mph 85 % 0.0 in
15:04 8.6 °F 6.2 °F 1003.9 in SW 4.7 mph 4.7 mph 85 % 0.0 in
15:09 8.6 °F 6.2 °F 1003.9 in SW 3.7 mph 3.7 mph 85 % 0.0 in
15:10 8.6 °F 6.2 °F 1003.9 in SW 1.9 mph   85 % 0.0 in
15:15 8.6 °F 6.4 °F 1003.9 in Calm     86 % 0.0 in
15:20 8.6 °F 6.4 °F 1003.9 in SW 3.7 mph 3.7 mph 86 % 0.0 in
15:21 8.6 °F 6.4 °F 1003.9 in SSW 3.7 mph 3.7 mph 86 % 0.0 in
15:26 8.6 °F 6.4 °F 1003.9 in SW 1.9 mph   86 % 0.0 in
15:31 8.6 °F 6.4 °F 1003.9 in South 3.7 mph 3.7 mph 86 % 0.0 in
15:33 8.6 °F 6.4 °F 1003.9 in Calm     86 % 0.0 in
15:37 8.6 °F 6.4 °F 1003.9 in ENE 2.6 mph   86 % 0.0 in
15:41 8.5 °F 6.3 °F 1003.9 in NNW 1.9 mph 1.9 mph 86 % 0.0 in
15:48 8.5 °F 6.3 °F 1003.9 in NNE 2.3 mph 2.3 mph 86 % 0.0 in
15:53 8.5 °F 6.3 °F 1005.0 in NNE 3.7 mph 3.7 mph 86 % 0.0 in
15:55 8.5 °F 6.3 °F 1005.0 in NNE 5.6 mph 5.6 mph 86 % 0.0 in
16:00 8.4 °F 6.2 °F 1005.0 in NNE 3.2 mph 4.8 mph 86 % 0.0 in
16:05 8.4 °F 6.2 °F 1005.0 in Calm   3.2 mph 86 % 0.0 in
16:07 8.4 °F 6.2 °F 1003.9 in Calm     86 % 0.0 in
16:12 8.4 °F 6.2 °F 1003.9 in East 3.7 mph 3.7 mph 86 % 0.0 in
16:15 8.3 °F 6.1 °F 1003.9 in SE 1.9 mph   86 % 0.0 in
16:20 8.4 °F 6.2 °F 1005.0 in WSW 3.7 mph   86 % 0.0 in
16:30 8.3 °F 5.9 °F 1005.0 in NE 11.1 mph 11.1 mph 85 % 0.0 in
16:32 8.1 °F 5.7 °F 1005.0 in NNE 13.0 mph 13.0 mph 85 % 0.0 in
16:37 8.1 °F 5.4 °F 1003.9 in NNE 16.7 mph 16.7 mph 83 % 0.0 in
16:40 8.1 °F 5.4 °F 1003.9 in WNW 3.7 mph 3.7 mph 83 % 0.0 in
16:45 8.1 °F 5.4 °F 1003.9 in WNW 5.6 mph 5.6 mph 83 % 0.0 in
16:46 8.1 °F 5.4 °F 1003.9 in West 3.9 mph 3.9 mph 83 % 0.0 in
16:51 8.2 °F 5.5 °F 1003.9 in SW 3.7 mph 3.7 mph 83 % 0.0 in
16:53 8.2 °F 5.5 °F 1003.9 in NW 1.9 mph   83 % 0.0 in
16:58 8.2 °F 5.5 °F 1003.9 in NNE 1.9 mph 1.9 mph 83 % 0.0 in
17:03 8.2 °F 5.5 °F 1003.9 in ENE 3.7 mph 3.7 mph 83 % 0.0 in
17:08 8.1 °F 5.2 °F 1003.9 in NNE 6.9 mph 6.9 mph 82 % 0.0 in
17:11 8.0 °F 5.1 °F 1003.9 in NNE 10.0 mph 10.0 mph 82 % 0.0 in
17:16 8.0 °F 4.9 °F 1003.9 in NNE 9.3 mph 9.3 mph 81 % 0.0 in
17:20 8.0 °F 4.8 °F 1003.9 in NNW 7.9 mph 7.9 mph 80 % 0.0 in
17:25 8.0 °F 4.8 °F 1003.9 in WNW 3.7 mph 3.7 mph 80 % 0.0 in
17:30 8.0 °F 4.9 °F 1003.9 in WSW 1.9 mph 1.9 mph 81 % 0.0 in
17:34 8.0 °F 4.9 °F 1003.9 in NE 1.9 mph   81 % 0.0 in
17:38 7.9 °F 4.8 °F 1003.9 in NNE 5.6 mph 5.6 mph 81 % 0.0 in
17:43 8.0 °F 5.1 °F 1003.9 in WSW 3.7 mph 3.7 mph 82 % 0.0 in
17:45 8.0 °F 5.1 °F 1003.9 in SSW 4.7 mph 4.7 mph 82 % 0.0 in
17:50 8.0 °F 5.1 °F 1003.9 in WNW 1.9 mph 1.9 mph 82 % 0.0 in
17:55 8.0 °F 5.1 °F 1003.9 in WSW 2.6 mph 2.6 mph 82 % 0.0 in
17:58 8.0 °F 5.1 °F 1003.9 in ESE 3.7 mph 3.7 mph 82 % 0.0 in
18:03 7.9 °F 4.8 °F 1003.9 in ENE 5.6 mph 5.6 mph 81 % 0.0 in
18:08 7.9 °F 4.8 °F 1005.0 in SW 5.6 mph 5.6 mph 81 % 0.0 in
18:13 7.9 °F 4.7 °F 1005.0 in ENE 9.3 mph 9.3 mph 80 % 0.0 in
18:15 7.9 °F 4.7 °F 1005.0 in West 3.2 mph 9.7 mph 80 % 0.0 in
18:20 7.9 °F 4.7 °F 1005.0 in West 3.7 mph 3.7 mph 80 % 0.0 in
18:23 7.9 °F 4.5 °F 1005.0 in ENE 6.1 mph 6.1 mph 79 % 0.0 in
18:25 4.8 °F 2.3 °F 1007.0 in Calm   1.6 mph 84 % 0.0 in
18:28 7.9 °F 4.5 °F 1005.0 in SSE 3.7 mph 3.7 mph 79 % 0.0 in
18:31 7.8 °F 4.4 °F 1005.0 in SSW 5.6 mph 5.6 mph 79 % 0.0 in
18:35 4.7 °F 2.2 °F 1007.0 in Calm     84 % 0.0 in
18:36 7.8 °F 4.4 °F 1005.0 in SSW 3.7 mph 3.7 mph 79 % 0.0 in
18:40 7.7 °F 4.3 °F 1005.0 in West 3.2 mph 8.0 mph 79 % 0.0 in
18:45 7.8 °F 4.4 °F 1005.0 in WSW 3.7 mph 3.7 mph 79 % 0.0 in
18:50 7.6 °F 4.2 °F 1005.0 in SSW 1.9 mph 1.9 mph 79 % 0.0 in
18:57 7.6 °F 4.4 °F 1005.0 in SW 5.6 mph 5.6 mph 80 % 0.0 in
19:02 7.5 °F 4.3 °F 1005.0 in SSW 5.8 mph 5.8 mph 80 % 0.0 in
19:05 4.4 °F 1.9 °F 1007.0 in Calm     84 % 0.0 in
19:07 7.5 °F 4.3 °F 1005.0 in WSW 5.6 mph 5.6 mph 80 % 0.0 in
19:08 7.5 °F 4.3 °F 1005.0 in West 5.6 mph 5.6 mph 80 % 0.0 in
19:13 7.4 °F 4.3 °F 1005.0 in SW 3.7 mph 3.7 mph 81 % 0.0 in
19:15 4.4 °F 2.1 °F 1007.0 in Calm   1.6 mph 85 % 0.0 in
19:18 7.4 °F 4.3 °F 1005.0 in WSW 3.7 mph 3.7 mph 81 % 0.0 in
19:20 7.3 °F 4.3 °F 1005.0 in WSW 3.7 mph 3.7 mph 81 % 0.0 in
19:25 7.3 °F 4.4 °F 1005.0 in Calm   1.6 mph 82 % 0.0 in
19:28 7.3 °F 4.4 °F 1005.0 in Calm     82 % 0.0 in
19:29 7.2 °F 4.3 °F 1005.0 in Calm     82 % 0.0 in
19:34 7.2 °F 4.3 °F 1005.0 in NE 3.7 mph 3.7 mph 82 % 0.0 in
19:35 4.1 °F 1.8 °F 1007.0 in ENE 1.6 mph 1.6 mph 85 % 0.0 in
19:39 7.1 °F 4.4 °F 1005.0 in ENE 1.9 mph 1.9 mph 83 % 0.0 in
19:44 7.1 °F 4.4 °F 1005.0 in ENE 3.7 mph   83 % 0.0 in
19:45 4.1 °F 1.8 °F 1007.0 in Calm   3.2 mph 85 % 0.0 in
19:49 7.0 °F 4.3 °F 1005.0 in Calm     83 % 0.0 in
19:54 6.9 °F 4.2 °F 1006.0 in South 3.7 mph 3.7 mph 83 % 0.0 in
19:55 4.1 °F 1.8 °F 1008.0 in Calm     85 % 0.0 in
19:57 6.9 °F 4.2 °F 1006.0 in SW 1.9 mph 1.9 mph 83 % 0.0 in
20:02 6.8 °F 4.1 °F 1006.0 in SW 2.6 mph   83 % 0.0 in
20:07 6.7 °F 4.0 °F 1006.0 in WSW 5.6 mph 5.6 mph 83 % 0.0 in
20:11 6.6 °F 3.9 °F 1006.0 in West 3.7 mph 3.7 mph 83 % 0.0 in
20:15 4.1 °F 1.8 °F 1008.0 in Calm   1.6 mph 85 % 0.0 in
20:16 6.6 °F 3.9 °F 1006.0 in West 3.7 mph 3.7 mph 83 % 0.0 in
20:21 6.6 °F 3.9 °F 1005.0 in SW 3.9 mph 3.9 mph 83 % 0.0 in
20:22 6.6 °F 3.9 °F 1005.0 in SW 3.7 mph 3.7 mph 83 % 0.0 in
20:25 3.8 °F 1.5 °F 1008.0 in Calm     85 % 0.0 in
20:27 6.5 °F 3.8 °F 1005.0 in WSW 4.2 mph 4.2 mph 83 % 0.0 in
20:32 6.5 °F 3.8 °F 1005.0 in WSW 3.9 mph 3.9 mph 83 % 0.0 in
20:35 4.0 °F 1.6 °F 1007.0 in WNW 1.6 mph 4.8 mph 84 % 0.0 in
20:37 6.5 °F 3.8 °F 1005.0 in WSW 3.9 mph 3.9 mph 83 % 0.0 in
20:42 6.5 °F 3.8 °F 1005.0 in West 3.7 mph 3.7 mph 83 % 0.0 in
20:47 6.5 °F 3.8 °F 1005.0 in West 3.7 mph 3.7 mph 83 % 0.0 in
20:52 6.6 °F 3.9 °F 1006.0 in SW 5.3 mph 5.3 mph 83 % 0.0 in
20:55 4.0 °F 1.6 °F 1008.0 in Calm   3.2 mph 84 % 0.0 in
20:57 6.4 °F 3.7 °F 1006.0 in SW 1.9 mph   83 % 0.0 in
21:02 6.2 °F 3.5 °F 1006.0 in Calm     83 % 0.0 in
21:07 6.2 °F 3.5 °F 1006.0 in Calm     83 % 0.0 in
21:12 6.1 °F 3.4 °F 1006.0 in SSW 3.7 mph 3.7 mph 83 % 0.0 in
21:17 6.1 °F 3.4 °F 1006.0 in WSW 3.9 mph 3.9 mph 83 % 0.0 in
21:18 6.1 °F 3.4 °F 1006.0 in WSW 3.7 mph 3.7 mph 83 % 0.0 in
21:19 6.1 °F 3.4 °F 1006.0 in WSW 1.9 mph 2.3 mph 83 % 0.0 in
21:24 6.1 °F 3.4 °F 1006.0 in Calm     83 % 0.0 in
21:25 3.4 °F 1.1 °F 1008.0 in Calm   3.2 mph 85 % 0.0 in
21:29 6.1 °F 3.6 °F 1006.0 in West 1.9 mph 1.9 mph 84 % 0.0 in
21:34 6.1 °F 3.6 °F 1006.0 in West 3.2 mph   84 % 0.0 in
21:35 3.4 °F 1.1 °F 1008.0 in NNE 3.2 mph 3.2 mph 85 % 0.0 in
21:36 6.1 °F 3.6 °F 1006.0 in WSW 3.7 mph 3.7 mph 84 % 0.0 in
21:41 6.1 °F 3.6 °F 1006.0 in WSW 2.3 mph 2.3 mph 84 % 0.0 in
21:46 6.1 °F 3.6 °F 1006.0 in SW 3.2 mph   84 % 0.0 in
21:51 5.9 °F 3.4 °F 1006.0 in SW 1.9 mph   84 % 0.0 in
21:55 3.7 °F 1.6 °F 1008.0 in NNE 1.6 mph 3.2 mph 86 % 0.0 in
21:57 5.9 °F 3.2 °F 1006.0 in West 3.7 mph 3.7 mph 83 % 0.0 in
22:05 3.5 °F 1.2 °F 1008.0 in NNW 1.6 mph 1.6 mph 85 % 0.0 in
22:15 5.9 °F 3.2 °F 1007.0 in NW 3.7 mph 3.7 mph 83 % 0.0 in
22:20 5.9 °F 3.2 °F 1007.0 in NW 3.7 mph 3.7 mph 83 % 0.0 in
22:25 5.9 °F 3.2 °F 1007.0 in West 3.7 mph 3.7 mph 83 % 0.0 in
22:30 6.0 °F 3.3 °F 1007.0 in WSW 3.7 mph 3.7 mph 83 % 0.0 in
22:35 6.1 °F 3.4 °F 1007.0 in WNW 5.6 mph 5.6 mph 83 % 0.0 in
22:40 6.0 °F 3.3 °F 1007.0 in WSW 3.7 mph 3.7 mph 83 % 0.0 in
22:45 6.0 °F 3.3 °F 1007.0 in NW 1.9 mph 1.9 mph 83 % 0.0 in
22:50 6.0 °F 3.3 °F 1007.0 in Calm     83 % 0.0 in
22:55 5.9 °F 3.2 °F 1007.0 in ESE 3.9 mph 3.9 mph 83 % 0.0 in
22:59 5.7 °F 3.1 °F 1007.0 in ESE 7.4 mph 7.4 mph 83 % 0.0 in
23:04 5.7 °F 3.1 °F 1007.0 in Calm     83 % 0.0 in
23:05 2.6 °F 0.2 °F 1008.0 in WSW 3.2 mph 4.8 mph 84 % 0.0 in
23:09 5.7 °F 3.1 °F 1007.0 in Calm     83 % 0.0 in
23:12 5.6 °F 3.1 °F 1007.0 in ENE 3.7 mph 3.7 mph 84 % 0.0 in
23:22 5.4 °F 2.9 °F 1007.0 in Calm     84 % 0.0 in
23:25 3.0 °F 0.7 °F 1008.0 in West 3.2 mph 3.2 mph 85 % 0.0 in
23:27 5.3 °F 2.8 °F 1007.0 in NNW 1.9 mph   84 % 0.0 in
23:32 5.1 °F 2.6 °F 1007.0 in Calm     84 % 0.0 in
23:35 3.1 °F 0.8 °F 1008.0 in West 3.2 mph 3.2 mph 85 % 0.0 in
23:37 5.1 °F 2.6 °F 1007.0 in Calm     84 % 0.0 in
23:43 5.1 °F 2.6 °F 1007.0 in Calm     84 % 0.0 in
23:45 2.7 °F 0.4 °F 1008.0 in WSW 3.2 mph 3.2 mph 85 % 0.0 in
23:47 5.0 °F 2.5 °F 1007.0 in Calm     84 % 0.0 in
23:48 5.0 °F 2.5 °F 1007.0 in Calm     84 % 0.0 in
23:53 5.0 °F 2.5 °F 1007.0 in Calm     84 % 0.0 in
23:55 3.0 °F 0.7 °F 1008.0 in SW 3.2 mph 6.4 mph 85 % 0.0 in
23:58 5.0 °F 2.5 °F 1007.0 in Calm     84 % 0.0 in
Meteo Sesrovires
Elogis d' Weather Underground - 1.75 mb

Guio original per  Jim McMurry - jmcmurry@mwt.net Adaptat per a la plantilla per  Wim van der Kuil - Leuven-Template.eu

Trobareu la nostra informacio del temps tambe a:

Weather Underground

AWEKAS